Time;durP1;ratioP1;P1;durP2;ratioP2;P2;SDS_P1;SDS_P2;PMS_P1;PMS_P2;Temp;Humidity;BMP_temperature;BMP_pressure;BME280_temperature;BME280_humidity;BME280_pressure;Samples;Min_cycle;Max_cycle;Signal;HPM_P1;HPM_P2
2022/03/14 00:00:28;;;;;;;;;;;;;;;24.40;35.03;94527.63;4918722;29;7276;-41
2022/03/14 00:02:59;;;;;;;;;;;;;;;24.44;35.14;94538.38;4940395;29;7256;-40
2022/03/14 00:05:31;;;;;;;;;;;;;;;24.44;34.69;94535.63;4932602;28;7903;-41
2022/03/14 00:07:59;;;;;;;;;;;;;;;24.42;34.29;94532.63;4936917;29;9365;-42
2022/03/14 00:10:25;;;;;;;;;;;;;;;24.39;34.72;94553.63;4933507;28;8787;-41
2022/03/14 00:13:04;;;;;;;;;;;;;;;24.36;34.01;94559.38;4901625;28;6974;-41
2022/03/14 00:15:33;;;;;;;;;;;;;;;24.37;34.50;94569.13;4914296;29;7244;-40
2022/03/14 00:18:05;;;;;;;;;;;;;;;24.35;34.71;94566.88;4940627;29;8913;-41
2022/03/14 00:20:35;;;;;;;;;;;;;;;24.35;34.42;94588.88;4928642;29;9282;-40
2022/03/14 00:23:02;;;;;;;;;;;;;;;24.34;35.41;94587.34;4929333;29;7342;-42
2022/03/14 00:25:30;;;;;;;;;;;;;;;24.32;34.96;94589.84;4930087;29;8255;-41
2022/03/14 00:27:56;;;;;;;;;;;;;;;24.31;35.10;94593.09;4926027;29;8768;-40
2022/03/14 00:30:30;;;;;;;;;;;;;;;24.29;35.04;94610.09;4956766;28;7286;-41
2022/03/14 00:32:57;;;;;;;;;;;;;;;24.31;35.12;94617.84;4975818;28;7364;-40
2022/03/14 00:35:24;;;;;;;;;;;;;;;24.31;35.36;94624.09;4951637;28;7685;-41
2022/03/14 00:37:51;;;;;;;;;;;;;;;24.30;34.74;94619.84;4958617;28;7194;-40
2022/03/14 00:40:18;;;;;;;;;;;;;;;24.30;35.05;94635.56;4933602;28;7458;-40
2022/03/14 00:43:03;;;;;;;;;;;;;;;24.29;35.23;94637.59;4972490;28;9262;-40
2022/03/14 00:45:31;;;;;;;;;;;;;;;24.30;35.49;94647.31;4993292;28;7113;-40
2022/03/14 00:48:19;;;;;;;;;;;;;;;24.27;34.96;94650.31;4955342;28;8234;-41
2022/03/14 00:50:46;;;;;;;;;;;;;;;24.26;34.87;94649.56;4964533;28;7242;-40
2022/03/14 00:53:24;;;;;;;;;;;;;;;24.25;35.04;94661.78;4954230;28;7403;-41
2022/03/14 00:55:58;;;;;;;;;;;;;;;24.28;34.80;94671.81;4956055;28;8816;-40
2022/03/14 00:58:33;;;;;;;;;;;;;;;24.28;35.24;94677.31;5006686;28;9458;-40
2022/03/14 01:01:07;;;;;;;;;;;;;;;;;;4969468;28;7104;-41
2022/03/14 01:03:35;;;;;;;;;;;;;;;24.26;35.01;94690.78;4973341;28;9918;-40
2022/03/14 01:06:01;;;;;;;;;;;;;;;24.27;35.37;94692.28;4968816;28;9475;-42
2022/03/14 01:08:27;;;;;;;;;;;;;;;24.23;34.89;94688.28;4964491;28;7235;-40
2022/03/14 01:10:55;;;;;;;;;;;;;;;24.27;35.31;94697.78;4954427;28;7324;-40
2022/03/14 01:13:23;;;;;;;;;;;;;;;;;;4995195;28;7275;-40
2022/03/14 01:15:50;;;;;;;;;;;;;;;24.26;35.61;94712.03;4970844;28;7899;-40
2022/03/14 01:18:21;;;;;;;;;;;;;;;24.25;35.23;94716.75;4943912;28;7271;-40
2022/03/14 01:21:00;;;;;;;;;;;;;;;24.25;35.13;94725.00;4997262;28;7415;-41
2022/03/14 01:23:29;;;;;;;;;;;;;;;24.26;35.55;94731.25;4978064;28;7091;-41
2022/03/14 01:25:55;;;;;;;;;;;;;;;24.22;35.30;94726.00;4982925;28;9152;-40
2022/03/14 01:28:23;;;;;;;;;;;;;;;24.24;35.26;94740.00;4961714;28;8788;-40
2022/03/14 01:30:50;;;;;;;;;;;;;;;24.24;35.61;94740.00;4972366;28;6998;-40
2022/03/14 01:33:18;;;;;;;;;;;;;;;24.22;35.58;94733.50;4968145;28;7271;-40
2022/03/14 01:35:55;;;;;;;;;;;;;;;24.22;35.19;94733.50;4977267;28;8886;-41
2022/03/14 01:38:29;;;;;;;;;;;;;;;24.20;35.18;94736.00;4967785;28;9107;-41
2022/03/14 01:41:00;;;;;;;;;;;;;;;24.21;35.43;94727.25;4975747;28;7067;-40
2022/03/14 01:43:32;;;;;;;;;;;;;;;24.22;35.71;94739.75;4936197;28;6975;-40
2022/03/14 01:46:12;;;;;;;;;;;;;;;24.20;35.69;94733.25;4980554;28;7278;-40
2022/03/14 01:48:45;;;;;;;;;;;;;;;24.21;35.18;94738.25;4982101;28;8736;-41
2022/03/14 01:51:35;;;;;;;;;;;;;;;24.21;35.41;94738.25;4961554;28;7360;-40
2022/03/14 01:54:03;;;;;;;;;;;;;;;24.20;35.31;94736.75;4994272;28;7226;-40
2022/03/14 01:56:40;;;;;;;;;;;;;;;24.19;35.23;94729.75;4977587;28;9028;-40
2022/03/14 01:59:08;;;;;;;;;;;;;;;24.19;35.77;94740.72;4965373;28;6970;-40
2022/03/14 02:01:35;;;;;;;;;;;;;;;24.17;35.62;94732.22;4945983;28;9102;-42
2022/03/14 02:04:02;;;;;;;;;;;;;;;24.20;36.04;94736.75;4963640;28;9260;-40
2022/03/14 02:06:28;;;;;;;;;;;;;;;24.19;35.37;94740.72;4980542;28;7268;-41
2022/03/14 02:08:54;;;;;;;;;;;;;;;24.18;35.90;94731.00;4989246;28;9335;-40
2022/03/14 02:11:20;;;;;;;;;;;;;;;24.17;35.93;94731.47;4959677;28;9221;-41
2022/03/14 02:13:53;;;;;;;;;;;;;;;24.15;35.75;94737.47;4945796;28;7203;-41
2022/03/14 02:16:19;;;;;;;;;;;;;;;24.16;35.57;94747.22;4957601;28;7367;-40
2022/03/14 02:18:46;;;;;;;;;;;;;;;24.18;36.27;94757.72;4955350;28;9744;-42
2022/03/14 02:21:13;;;;;;;;;;;;;;;24.18;35.82;94761.22;4959548;28;7232;-41
2022/03/14 02:23:49;;;;;;;;;;;;;;;24.17;35.66;94759.72;4962462;28;9982;-40
2022/03/14 02:26:18;;;;;;;;;;;;;;;24.15;35.77;94751.22;4957303;28;9144;-40
2022/03/14 02:28:46;;;;;;;;;;;;;;;24.17;35.82;94751.47;4978458;28;7273;-40
2022/03/14 02:31:12;;;;;;;;;;;;;;;24.15;35.85;94748.47;4956748;28;7251;-40
2022/03/14 02:33:38;;;;;;;;;;;;;;;24.16;35.77;94752.72;4968211;28;8011;-40
2022/03/14 02:36:05;;;;;;;;;;;;;;;24.17;35.81;94756.19;4977243;28;7136;-40
2022/03/14 02:38:32;;;;;;;;;;;;;;;24.15;36.05;94761.44;4948787;28;7914;-41
2022/03/14 02:40:58;;;;;;;;;;;;;;;24.16;36.03;94763.72;4969024;28;7065;-44
2022/03/14 02:43:24;;;;;;;;;;;;;;;24.12;36.16;94763.16;4952694;28;7254;-44
2022/03/14 02:45:51;;;;;;;;;;;;;;;24.16;36.02;94769.22;4985894;28;7017;-45
2022/03/14 02:48:23;;;;;;;;;;;;;;;24.15;36.01;94778.69;4945919;28;9882;-45
2022/03/14 02:50:53;;;;;;;;;;;;;;;24.14;35.78;94788.16;4973082;28;7684;-44
2022/03/14 02:53:26;;;;;;;;;;;;;;;24.11;36.08;94780.91;4985447;28;7067;-45
2022/03/14 02:55:55;;;;;;;;;;;;;;;24.13;36.11;94786.69;4977553;28;7480;-44
2022/03/14 02:58:21;;;;;;;;;;;;;;;24.10;35.80;94782.16;4974888;28;7365;-45
2022/03/14 03:00:50;;;;;;;;;;;;;;;24.11;36.09;94791.16;4959565;28;9239;-44
2022/03/14 03:03:16;;;;;;;;;;;;;;;24.12;36.02;94798.16;4940437;28;7447;-46
2022/03/14 03:05:43;;;;;;;;;;;;;;;24.13;36.48;94805.91;4972279;28;9016;-44
2022/03/14 03:08:10;;;;;;;;;;;;;;;24.12;36.30;94809.91;4949311;28;7700;-44
2022/03/14 03:10:36;;;;;;;;;;;;;;;24.12;36.03;94812.63;4962767;28;9043;-44
2022/03/14 03:13:03;;;;;;;;;;;;;;;24.11;35.93;94813.91;4980148;28;7419;-45
2022/03/14 03:15:29;;;;;;;;;;;;;;;24.08;35.94;94809.38;4953267;28;8972;-46
2022/03/14 03:17:56;;;;;;;;;;;;;;;24.10;36.18;94814.41;4947087;28;7444;-45
2022/03/14 03:20:25;;;;;;;;;;;;;;;24.10;36.44;94828.88;4974327;28;7344;-46
2022/03/14 03:22:51;;;;;;;;;;;;;;;24.06;36.04;94820.09;4977748;28;9475;-44
2022/03/14 03:25:21;;;;;;;;;;;;;;;24.11;36.36;94837.88;4983243;28;7105;-45
2022/03/14 03:27:47;;;;;;;;;;;;;;;24.10;36.28;94844.63;4946390;28;9027;-45
2022/03/14 03:30:14;;;;;;;;;;;;;;;24.10;35.59;94842.59;4984477;28;7518;-44
2022/03/14 03:32:40;;;;;;;;;;;;;;;24.11;36.33;94848.88;4949752;28;7004;-44
2022/03/14 03:35:06;;;;;;;;;;;;;;;24.10;36.42;94858.38;4952618;28;9165;-43
2022/03/14 03:37:32;;;;;;;;;;;;;;;24.09;36.26;94868.59;4954766;28;9221;-44
2022/03/14 03:40:03;;;;;;;;;;;;;;;24.09;36.62;94879.59;4952003;28;7617;-45
2022/03/14 03:42:29;;;;;;;;;;;;;;;24.05;36.34;94878.31;4982484;28;7249;-44
2022/03/14 03:44:55;;;;;;;;;;;;;;;24.08;36.44;94888.31;4953305;28;7300;-45
2022/03/14 03:47:24;;;;;;;;;;;;;;;24.05;36.39;94895.56;4982786;28;9772;-44
2022/03/14 03:50:02;;;;;;;;;;;;;;;24.08;36.19;94893.81;4959684;28;7092;-45
2022/03/14 03:52:28;;;;;;;;;;;;;;;24.04;36.07;94896.00;4945078;28;8178;-44
2022/03/14 03:55:00;;;;;;;;;;;;;;;24.07;36.50;94900.56;4988567;28;9181;-44
2022/03/14 03:57:33;;;;;;;;;;;;;;;24.05;36.37;94905.78;4949985;28;7219;-44
2022/03/14 03:59:59;;;;;;;;;;;;;;;24.07;36.36;94909.56;4963328;28;9002;-45
2022/03/14 04:02:25;;;;;;;;;;;;;;;24.04;36.73;94901.50;4961472;28;9648;-44
2022/03/14 04:04:51;;;;;;;;;;;;;;;24.04;36.22;94912.47;4988935;28;9480;-44
2022/03/14 04:07:26;;;;;;;;;;;;;;;24.03;36.22;94920.00;4935505;28;7465;-45
2022/03/14 04:09:56;;;;;;;;;;;;;;;24.02;36.40;94921.22;4970902;28;7517;-43
2022/03/14 04:12:24;;;;;;;;;;;;;;;24.01;36.31;94933.47;4964689;28;9075;-44
2022/03/14 04:15:06;;;;;;;;;;;;;;;24.01;36.41;94933.47;4960797;28;9080;-45
2022/03/14 04:18:03;;;;;;;;;;;;;;;24.01;36.42;94930.72;4963749;28;7221;-45
2022/03/14 04:20:29;;;;;;;;;;;;;;;23.99;36.15;94938.66;4931595;29;9054;-44
2022/03/14 04:23:05;;;;;;;;;;;;;;;23.98;36.65;94937.94;4940673;29;9143;-45
2022/03/14 04:25:45;;;;;;;;;;;;;;;24.00;36.50;94948.44;4903928;29;7511;-44
2022/03/14 04:28:21;;;;;;;;;;;;;;;23.97;36.38;94949.41;4935809;29;7279;-43
2022/03/14 04:30:53;;;;;;;;;;;;;;;23.99;36.18;94955.16;4943173;28;7253;-44
2022/03/14 04:33:30;;;;;;;;;;;;;;;23.99;36.24;94952.41;4930221;28;7640;-44
2022/03/14 04:36:06;;;;;;;;;;;;;;;23.98;36.16;94956.41;4919487;29;7259;-45
2022/03/14 04:38:33;;;;;;;;;;;;;;;23.97;36.93;94960.38;4923054;29;9078;-44
2022/03/14 04:41:01;;;;;;;;;;;;;;;23.97;36.55;94965.88;4931511;29;8305;-44
2022/03/14 04:43:36;;;;;;;;;;;;;;;23.97;36.20;94963.13;4935131;29;9128;-45
2022/03/14 04:46:32;;;;;;;;;;;;;;;23.97;36.73;94969.38;4919656;29;7320;-44
2022/03/14 04:49:10;;;;;;;;;;;;;;;23.97;36.29;94976.88;4882481;29;9408;-44
2022/03/14 04:51:50;;;;;;;;;;;;;;;23.96;36.07;94975.38;4876633;29;7227;-44
2022/03/14 04:54:18;;;;;;;;;;;;;;;23.90;36.64;94971.84;4871944;29;9394;-44
2022/03/14 04:57:00;;;;;;;;;;;;;;;23.92;36.39;94970.09;4903445;28;7465;-43
2022/03/14 04:59:28;;;;;;;;;;;;;;;23.94;36.22;94988.84;4941769;28;7004;-46
2022/03/14 05:02:41;;;;;;;;;;;;;;;23.94;36.11;94984.13;4934705;28;7162;-45
2022/03/14 05:05:12;;;;;;;;;;;;;;;23.93;36.09;94987.31;4935059;28;7277;-44
2022/03/14 05:07:38;;;;;;;;;;;;;;;23.93;36.63;94995.56;4928349;28;7071;-44
2022/03/14 05:10:06;;;;;;;;;;;;;;;23.93;36.38;95003.81;4934254;28;7728;-46
2022/03/14 05:12:33;;;;;;;;;;;;;;;23.95;36.39;95006.81;4924741;28;9137;-45
2022/03/14 05:14:59;;;;;;;;;;;;;;;23.88;36.55;94997.03;4945283;28;6992;-45
2022/03/14 05:17:30;;;;;;;;;;;;;;;23.91;36.14;94998.06;4918954;28;7743;-44
2022/03/14 05:19:57;;;;;;;;;;;;;;;23.92;36.45;94996.81;4934157;28;7214;-46
2022/03/14 05:22:25;;;;;;;;;;;;;;;23.92;36.03;94999.56;4934388;28;9480;-43
2022/03/14 05:24:57;;;;;;;;;;;;;;;23.90;36.17;94993.81;4927315;28;7162;-44
2022/03/14 05:27:24;;;;;;;;;;;;;;;23.93;35.82;94999.06;4974738;28;9072;-44
2022/03/14 05:29:50;;;;;;;;;;;;;;;23.92;36.16;94996.81;4962344;28;6984;-43
2022/03/14 05:32:19;;;;;;;;;;;;;;;23.91;36.20;95006.28;4959682;28;9305;-44
2022/03/14 05:34:51;;;;;;;;;;;;;;;23.91;36.07;95006.28;4963031;28;9452;-46
2022/03/14 05:37:19;;;;;;;;;;;;;;;23.88;36.25;95005.25;4976711;28;8969;-44
2022/03/14 05:39:49;;;;;;;;;;;;;;;23.89;36.07;95019.75;4943785;28;7500;-46
2022/03/14 05:42:17;;;;;;;;;;;;;;;23.90;36.79;95024.03;4968792;28;9002;-44
2022/03/14 05:44:44;;;;;;;;;;;;;;;23.89;35.96;95020.53;4956383;28;7290;-44
2022/03/14 05:47:10;;;;;;;;;;;;;;;23.93;36.28;95031.28;4993278;28;7276;-45
2022/03/14 05:49:38;;;;;;;;;;;;;;;23.92;35.96;95033.28;4966561;28;8959;-45
2022/03/14 05:52:07;;;;;;;;;;;;;;;23.87;36.40;95027.72;4980759;28;9417;-44
2022/03/14 05:54:36;;;;;;;;;;;;;;;23.92;35.57;95038.75;4961500;28;8748;-44
2022/03/14 05:57:06;;;;;;;;;;;;;;;23.92;36.58;95044.25;4968225;28;7071;-47
2022/03/14 05:59:35;;;;;;;;;;;;;;;23.92;36.25;95043.53;4965661;28;7304;-45
2022/03/14 06:02:03;;;;;;;;;;;;;;;23.94;35.96;95043.78;4970672;28;7639;-44
2022/03/14 06:04:29;;;;;;;;;;;;;;;23.93;35.86;95042.28;4964796;28;7252;-45
2022/03/14 06:06:56;;;;;;;;;;;;;;;23.90;35.79;95054.97;4965155;28;8924;-44
2022/03/14 06:09:25;;;;;;;;;;;;;;;23.92;35.69;95054.50;4942186;28;9047;-44
2022/03/14 06:11:53;;;;;;;;;;;;;;;23.93;36.15;95064.25;4995695;28;7143;-44
2022/03/14 06:14:29;;;;;;;;;;;;;;;23.88;36.09;95067.72;4962239;28;7395;-44
2022/03/14 06:16:55;;;;;;;;;;;;;;;23.90;36.18;95070.72;4971930;28;7602;-45
2022/03/14 06:19:21;;;;;;;;;;;;;;;23.88;36.30;95073.94;4970881;28;7225;-44
2022/03/14 06:21:48;;;;;;;;;;;;;;;23.90;36.16;95076.97;4971129;28;9129;-44
2022/03/14 06:24:14;;;;;;;;;;;;;;;23.90;36.99;95079.72;4946653;28;7353;-45
2022/03/14 06:26:41;;;;;;;;;;;;;;;23.90;36.84;95084.47;4973156;28;9210;-43
2022/03/14 06:29:10;;;;;;;;;;;;;;;23.92;36.55;95082.00;4973642;28;9130;-45
2022/03/14 06:31:42;;;;;;;;;;;;;;;23.95;36.13;95083.75;4955532;28;9412;-45
2022/03/14 06:34:08;;;;;;;;;;;;;;;23.92;36.40;95079.97;4976170;28;9176;-45
2022/03/14 06:36:42;;;;;;;;;;;;;;;23.89;36.58;95075.47;4975705;28;9048;-44
2022/03/14 06:39:10;;;;;;;;;;;;;;;23.93;36.47;95086.22;4952499;28;9497;-44
2022/03/14 06:41:38;;;;;;;;;;;;;;;23.92;36.52;95079.97;4981317;28;8894;-44
2022/03/14 06:44:05;;;;;;;;;;;;;;;23.92;36.54;95079.97;4975191;28;9576;-44
2022/03/14 06:46:33;;;;;;;;;;;;;;;23.89;36.96;95072.72;4971749;28;7257;-45
2022/03/14 06:48:59;;;;;;;;;;;;;;;23.89;35.91;95078.22;4970521;28;7142;-45
2022/03/14 06:51:26;;;;;;;;;;;;;;;23.93;35.96;95080.75;4990545;28;9049;-44
2022/03/14 06:53:52;;;;;;;;;;;;;;;23.93;36.17;95083.47;4962500;28;9070;-44
2022/03/14 06:56:19;;;;;;;;;;;;;;;23.92;36.00;95085.47;4954827;28;8208;-46
2022/03/14 06:58:47;;;;;;;;;;;;;;;23.89;36.16;95083.72;4944662;28;7250;-44
2022/03/14 07:01:13;;;;;;;;;;;;;;;23.93;35.81;95086.22;4975715;28;7247;-44
2022/03/14 07:03:39;;;;;;;;;;;;;;;23.88;36.37;95079.44;4972626;28;9064;-44
2022/03/14 07:06:07;;;;;;;;;;;;;;;23.90;35.82;95087.22;4942839;28;9184;-44
2022/03/14 07:08:36;;;;;;;;;;;;;;;23.90;36.29;95089.97;4962867;28;9124;-44
2022/03/14 07:11:01;;;;;;;;;;;;;;;23.93;36.25;95091.72;4955359;28;9390;-45
2022/03/14 07:13:32;;;;;;;;;;;;;;;23.92;35.97;95098.47;4963160;28;7350;-45
2022/03/14 07:15:58;;;;;;;;;;;;;;;23.90;35.83;95106.44;4959509;28;7068;-44
2022/03/14 07:18:24;;;;;;;;;;;;;;;23.93;35.49;95110.97;4962224;28;9062;-46
2022/03/14 07:20:52;;;;;;;;;;;;;;;23.92;35.80;95117.72;4980899;28;9334;-46
2022/03/14 07:23:18;;;;;;;;;;;;;;;23.93;34.70;95124.69;4932027;28;9425;-47
2022/03/14 07:25:52;;;;;;;;;;;;;;;23.90;35.18;95128.44;4963810;28;7373;-44
2022/03/14 07:28:18;;;;;;;;;;;;;;;23.92;35.59;95132.19;4975254;28;7454;-44
2022/03/14 07:30:51;;;;;;;;;;;;;;;23.93;35.40;95139.19;4982113;28;7117;-47
2022/03/14 07:33:50;;;;;;;;;;;;;;;23.95;35.83;95146.94;4965523;28;7021;-44
2022/03/14 07:36:17;;;;;;;;;;;;;;;23.95;35.96;95141.47;4947189;28;12404;-44
2022/03/14 07:38:44;;;;;;;;;;;;;;;23.97;36.11;95147.22;4922513;29;9011;-45
2022/03/14 07:41:20;;;;;;;;;;;;;;;23.96;36.39;95140.22;4894285;29;7369;-45
2022/03/14 07:44:00;;;;;;;;;;;;;;;23.93;35.95;95143.94;4930760;29;7368;-47
2022/03/14 07:46:27;;;;;;;;;;;;;;;23.94;36.39;95148.19;4929228;28;7248;-43
2022/03/14 07:49:05;;;;;;;;;;;;;;;23.96;36.02;95156.72;4902915;28;7289;-45
2022/03/14 07:51:36;;;;;;;;;;;;;;;23.98;36.74;95163.25;4945827;28;9066;-44
2022/03/14 07:54:17;;;;;;;;;;;;;;;23.94;36.69;95161.94;4905075;28;7590;-47
2022/03/14 07:56:53;;;;;;;;;;;;;;;23.97;36.34;95169.97;4909557;28;7248;-44
2022/03/14 07:59:33;;;;;;;;;;;;;;;23.96;36.68;95170.47;4931717;28;7017;-45
2022/03/14 08:02:03;;;;;;;;;;;;;;;24.01;36.59;95180.00;4928192;29;7048;-44
2022/03/14 08:04:30;;;;;;;;;;;;;;;23.99;37.34;95174.97;4935137;29;7528;-46
2022/03/14 08:06:56;;;;;;;;;;;;;;;24.00;37.09;95184.75;4946097;28;7326;-44
2022/03/14 08:09:22;;;;;;;;;;;;;;;23.97;36.74;95180.97;4930121;29;9087;-46
2022/03/14 08:11:47;;;;;;;;;;;;;;;23.99;36.84;95175.72;4948883;28;7222;-44
2022/03/14 08:14:13;;;;;;;;;;;;;;;24.02;36.56;95171.28;4995818;28;9080;-44
2022/03/14 08:16:39;;;;;;;;;;;;;;;23.97;36.58;95174.69;4991092;28;9105;-44
2022/03/14 08:19:07;;;;;;;;;;;;;;;24.02;36.91;95178.75;4968261;28;7256;-44
2022/03/14 08:21:40;;;;;;;;;;;;;;;24.01;36.89;95175.28;4989708;28;9050;-46
2022/03/14 08:24:15;;;;;;;;;;;;;;;24.02;37.12;95176.00;5015983;28;7273;-47
2022/03/14 08:26:47;;;;;;;;;;;;;;;24.01;37.06;95185.50;4974542;28;9015;-45
2022/03/14 08:29:13;;;;;;;;;;;;;;;24.06;36.62;95187.56;4971665;28;7363;-44
2022/03/14 08:31:40;;;;;;;;;;;;;;;24.00;36.71;95187.50;4988082;28;9466;-44
2022/03/14 08:34:06;;;;;;;;;;;;;;;24.05;36.13;95191.56;4991148;28;9125;-44
2022/03/14 08:36:35;;;;;;;;;;;;;;;24.06;36.77;95184.81;4971049;28;7314;-45
2022/03/14 08:39:03;;;;;;;;;;;;;;;24.04;37.04;95188.03;4981996;28;7455;-44
2022/03/14 08:41:36;;;;;;;;;;;;;;;24.02;36.74;95189.75;5018833;28;7236;-47
2022/03/14 08:44:04;;;;;;;;;;;;;;;24.07;37.14;95194.59;4984239;28;8088;-45
2022/03/14 08:46:34;;;;;;;;;;;;;;;24.07;36.55;95195.34;4994412;28;7585;-45
2022/03/14 08:49:16;;;;;;;;;;;;;;;24.05;37.29;95192.34;4990070;28;7251;-45
2022/03/14 08:51:52;;;;;;;;;;;;;;;24.02;36.84;95203.47;4981518;28;7172;-44
2022/03/14 08:54:18;;;;;;;;;;;;;;;23.80;32.58;95201.22;4986811;28;6974;-45
2022/03/14 08:56:44;;;;;;;;;;;;;;;23.67;31.60;95218.03;4987898;28;7263;-45
2022/03/14 08:59:12;;;;;;;;;;;;;;;23.64;31.16;95210.72;4976439;28;7258;-45
2022/03/14 09:01:39;;;;;;;;;;;;;;;23.69;30.81;95215.53;4965285;28;7339;-45
2022/03/14 09:04:05;;;;;;;;;;;;;;;23.72;31.49;95208.34;4974436;28;8896;-45
2022/03/14 09:06:35;;;;;;;;;;;;;;;23.75;31.65;95213.63;4980262;28;7174;-45
2022/03/14 09:09:03;;;;;;;;;;;;;;;23.80;31.74;95217.69;4978914;28;7160;-44
2022/03/14 09:11:29;;;;;;;;;;;;;;;23.82;31.68;95213.22;4974062;28;9212;-43
2022/03/14 09:14:00;;;;;;;;;;;;;;;23.80;32.47;95214.94;4985380;28;10377;-44
2022/03/14 09:16:29;;;;;;;;;;;;;;;23.80;32.75;95210.22;5006025;28;9239;-44
2022/03/14 09:18:57;;;;;;;;;;;;;;;23.81;32.65;95217.22;4978404;28;7275;-44
2022/03/14 09:21:27;;;;;;;;;;;;;;;23.87;32.68;95220.03;5003589;28;7099;-44
2022/03/14 09:23:53;;;;;;;;;;;;;;;23.89;32.75;95217.56;4966321;28;6987;-49
2022/03/14 09:26:21;;;;;;;;;;;;;;;23.89;32.96;95210.09;4990388;28;7246;-45
2022/03/14 09:28:50;;;;;;;;;;;;;;;23.90;33.13;95211.59;4967513;28;7059;-44
2022/03/14 09:31:16;;;;;;;;;;;;;;;23.92;33.34;95209.09;4977403;28;7268;-44
2022/03/14 09:34:09;;;;;;;;;;;;;;;23.95;33.53;95210.16;4988098;28;9072;-44
2022/03/14 09:36:41;;;;;;;;;;;;;;;23.95;33.38;95215.63;5002959;28;8696;-44
2022/03/14 09:39:11;;;;;;;;;;;;;;;23.92;33.54;95213.88;4978547;28;7087;-44
2022/03/14 09:41:39;;;;;;;;;;;;;;;23.97;34.03;95218.66;4975215;28;7337;-44
2022/03/14 09:44:09;;;;;;;;;;;;;;;23.96;33.79;95217.16;4959393;28;7140;-44
2022/03/14 09:46:39;;;;;;;;;;;;;;;23.97;33.79;95216.69;4977693;28;7270;-44
2022/03/14 09:49:07;;;;;;;;;;;;;;;23.96;34.23;95217.16;4974039;28;9463;-45
2022/03/14 09:51:35;;;;;;;;;;;;;;;23.92;34.10;95211.84;4972841;28;7012;-45
2022/03/14 09:54:01;;;;;;;;;;;;;;;23.98;34.23;95223.69;4972730;28;9478;-45
2022/03/14 09:56:29;;;;;;;;;;;;;;;23.98;34.63;95215.47;4973804;28;9375;-44
2022/03/14 09:58:54;;;;;;;;;;;;;;;24.02;34.22;95226.22;4974914;28;9335;-45
2022/03/14 10:01:23;;;;;;;;;;;;;;;23.99;34.38;95221.69;4977379;28;7334;-44
2022/03/14 10:03:49;;;;;;;;;;;;;;;24.03;34.49;95225.00;4990154;28;7258;-44
2022/03/14 10:06:15;;;;;;;;;;;;;;;24.01;34.77;95219.25;4975194;28;9361;-48
2022/03/14 10:08:43;;;;;;;;;;;;;;;24.05;34.93;95230.03;4960862;28;7078;-46
2022/03/14 10:11:09;;;;;;;;;;;;;;;24.03;34.75;95227.00;4972512;28;7273;-45
2022/03/14 10:13:38;;;;;;;;;;;;;;;24.06;34.61;95223.28;4972370;28;9104;-45
2022/03/14 10:16:05;;;;;;;;;;;;;;;24.05;34.77;95228.06;4980574;28;9390;-44
2022/03/14 10:18:56;;;;;;;;;;;;;;;24.09;34.69;95231.34;5009016;28;7962;-44
2022/03/14 10:21:30;;;;;;;;;;;;;;;24.09;34.76;95220.38;4994332;28;9265;-44
2022/03/14 10:24:24;;;;;;;;;;;;;;;24.10;34.60;95226.63;4977160;28;7000;-45
2022/03/14 10:26:51;;;;;;;;;;;;;;;24.07;35.19;95225.59;5002258;28;7433;-47
2022/03/14 10:29:22;;;;;;;;;;;;;;;24.10;35.00;95232.84;4980153;28;6857;-45
2022/03/14 10:32:02;;;;;;;;;;;;;;;24.14;35.73;95232.66;4995645;28;7503;-46
2022/03/14 10:34:52;;;;;;;;;;;;;;;24.13;34.97;95240.16;4989796;28;6980;-46
2022/03/14 10:37:29;;;;;;;;;;;;;;;24.13;34.90;95229.16;4955893;28;9602;-47
2022/03/14 10:40:14;;;;;;;;;;;;;;;24.17;35.49;95237.94;4986680;28;9088;-44
2022/03/14 10:43:01;;;;;;;;;;;;;;;24.18;35.11;95241.47;5012012;28;6864;-44
2022/03/14 10:45:32;;;;;;;;;;;;;;;24.18;35.22;95231.22;4992159;28;9040;-44
2022/03/14 10:48:13;;;;;;;;;;;;;;;24.18;35.41;95231.22;4983342;28;7339;-43
2022/03/14 10:50:43;;;;;;;;;;;;;;;24.20;35.64;95220.50;5020733;28;6981;-44
2022/03/14 10:53:34;;;;;;;;;;;;;;;24.20;35.43;95217.00;4983075;28;7259;-46
2022/03/14 10:56:03;;;;;;;;;;;;;;;24.17;35.61;95210.47;5019214;28;9532;-44
2022/03/14 10:58:33;;;;;;;;;;;;;;;24.16;35.54;95203.47;4995856;28;8089;-43
2022/03/14 11:01:25;;;;;;;;;;;;;;;24.23;35.62;95207.78;4980500;28;6995;-44
2022/03/14 11:03:51;;;;;;;;;;;;;;;24.24;35.97;95210.03;4928873;29;7004;-45
2022/03/14 11:06:17;;;;;;;;;;;;;;;24.25;35.46;95214.28;4892375;29;7247;-44
2022/03/14 11:08:45;;;;;;;;;;;;;;;24.27;35.75;95216.59;4901653;29;7643;-45
2022/03/14 11:11:16;;;;;;;;;;;;;;;24.27;35.69;95220.06;4898937;29;9151;-44
2022/03/14 11:13:45;;;;;;;;;;;;;;;24.31;35.97;95217.13;4901101;29;9120;-46
2022/03/14 11:16:17;;;;;;;;;;;;;;;24.28;35.79;95215.31;4906819;29;9537;-49
2022/03/14 11:18:58;;;;;;;;;;;;;;;24.29;35.91;95217.63;4931856;29;9161;-48
2022/03/14 11:21:33;;;;;;;;;;;;;;;24.33;35.75;95226.41;4899206;29;7207;-48
2022/03/14 11:24:10;;;;;;;;;;;;;;;24.35;35.67;95225.91;4909463;29;9855;-46
2022/03/14 11:26:37;;;;;;;;;;;;;;;24.33;35.85;95215.41;4901976;29;7286;-46
2022/03/14 11:29:03;;;;;;;;;;;;;;;24.35;35.98;95209.41;4898566;29;7010;-47
2022/03/14 11:31:29;;;;;;;;;;;;;;;24.33;35.53;95211.91;4889915;29;7256;-49
2022/03/14 11:33:55;;;;;;;;;;;;;;;24.33;35.78;95209.16;4908607;29;7055;-45
2022/03/14 11:36:24;;;;;;;;;;;;;;;24.35;35.77;95209.41;4893605;29;6981;-44
2022/03/14 11:38:54;;;;;;;;;;;;;;;24.36;35.71;95211.69;4911477;29;9086;-50
2022/03/14 11:41:20;;;;;;;;;;;;;;;24.35;36.01;95210.19;4950295;28;9493;-46
2022/03/14 11:43:46;;;;;;;;;;;;;;;24.40;35.56;95214.97;5000761;28;7971;-45
2022/03/14 11:46:14;;;;;;;;;;;;;;;24.40;35.73;95206.72;4975227;28;6996;-45
2022/03/14 11:48:45;;;;;;;;;;;;;;;24.39;35.76;95207.97;4984220;28;9553;-48
2022/03/14 11:51:13;;;;;;;;;;;;;;;24.40;35.80;95206.72;4978786;28;9751;-44
2022/03/14 11:53:50;;;;;;;;;;;;;;;24.41;35.62;95199.22;4970740;28;8768;-45
2022/03/14 11:56:17;;;;;;;;;;;;;;;24.44;35.43;95199.03;4989458;28;7135;-45
2022/03/14 11:58:58;;;;;;;;;;;;;;;24.42;35.36;95192.50;4975979;28;6994;-44
2022/03/14 12:01:27;;;;;;;;;;;;;;;24.43;35.22;95189.25;4985347;28;8784;-46
2022/03/14 12:03:59;;;;;;;;;;;;;;;24.46;35.57;95188.31;4980882;28;7271;-45
2022/03/14 12:06:46;;;;;;;;;;;;;;;24.50;35.34;95186.09;4978152;28;7201;-45
2022/03/14 12:09:27;;;;;;;;;;;;;;;24.52;35.87;95185.59;5008826;28;7754;-46
2022/03/14 12:11:57;;;;;;;;;;;;;;;24.53;35.63;95182.34;4991988;28;7215;-45
2022/03/14 12:14:43;;;;;;;;;;;;;;;24.56;35.79;95184.16;4988991;28;9448;-45
2022/03/14 12:17:13;;;;;;;;;;;;;;;24.57;35.79;95185.69;4991357;28;7986;-45
2022/03/14 12:19:46;;;;;;;;;;;;;;;24.60;35.43;95170.94;4994322;28;7295;-45
2022/03/14 12:22:35;;;;;;;;;;;;;;;24.60;35.66;95176.44;4973336;28;9214;-44
2022/03/14 12:25:07;;;;;;;;;;;;;;;24.62;35.43;95171.19;4958618;28;9424;-45
2022/03/14 12:27:37;;;;;;;;;;;;;;;24.63;35.15;95169.97;4971472;28;7951;-44
2022/03/14 12:30:24;;;;;;;;;;;;;;;24.67;35.56;95165.00;4959898;28;7535;-45
2022/03/14 12:32:54;;;;;;;;;;;;;;;24.67;35.81;95153.25;4999970;28;7572;-46
2022/03/14 12:35:25;;;;;;;;;;;;;;;24.69;35.62;95161.75;4958438;28;9901;-46
2022/03/14 12:38:14;;;;;;;;;;;;;;;24.72;35.92;95158.06;4988042;28;7054;-45
2022/03/14 12:40:48;;;;;;;;;;;;;;;24.73;35.60;95157.56;5011627;28;7048;-45
2022/03/14 12:43:24;;;;;;;;;;;;;;;24.75;35.50;95156.34;4960203;28;7048;-45
2022/03/14 12:45:55;;;;;;;;;;;;;;;24.76;35.83;95155.09;4947264;28;7088;-45
2022/03/14 12:48:52;;;;;;;;;;;;;;;24.79;36.00;95159.63;4940826;28;9696;-45
2022/03/14 12:51:38;;;;;;;;;;;;;;;24.80;36.19;95161.91;4960928;28;7030;-45
2022/03/14 12:54:09;;;;;;;;;;;;;;;24.82;35.41;95164.16;4945950;28;9419;-44
2022/03/14 12:56:38;;;;;;;;;;;;;;;24.81;35.56;95154.41;4968705;28;7317;-45
2022/03/14 12:59:08;;;;;;;;;;;;;;;24.83;35.73;95163.69;4968470;28;9206;-47
2022/03/14 13:01:41;;;;;;;;;;;;;;;24.86;35.98;95157.19;4954107;28;7296;-46
2022/03/14 13:04:15;;;;;;;;;;;;;;;24.91;35.94;95158.47;4959444;28;7116;-45
2022/03/14 13:06:42;;;;;;;;;;;;;;;24.89;35.83;95149.97;4967206;28;9116;-45
2022/03/14 13:09:08;;;;;;;;;;;;;;;24.89;35.99;95145.22;4934931;28;7591;-44
2022/03/14 13:11:39;;;;;;;;;;;;;;;24.92;36.07;95151.75;4968699;28;7259;-45
2022/03/14 13:14:18;;;;;;;;;;;;;;;24.94;35.73;95149.25;4929529;28;7875;-45
2022/03/14 13:16:45;;;;;;;;;;;;;;;24.93;36.20;95144.97;4955334;28;7342;-46